Terminal Aerodrome Forecast
Issued by NWS Memphis, TN

Home | Current Version | Previous Version | Text Only | Print | Product List | Glossary On
Versions: 1 2 3 4 5 6 7 8 9 10 11 12 13 14 15 16 17 18 19 20 21 22 23 24 25 26 27 28
000
FTUS44 KMEG 182339
TAFJBR
TAF
KJBR 182339Z 1900/1924 09006KT P6SM SCT035 OVC120
     FM190200 05005KT P6SM -SHRA SCT020 OVC035
     FM190400 VRB05KT 5SM -SHRA BR SCT009 OVC020
     FM190600 VRB05KT 5SM -SHRA VCTS OVC007CB
     FM191200 25008KT P6SM BKN015
     FM191500 25012KT P6SM SCT025 BKN040
     FM191800 25012G18KT P6SM SCT040 BKN250=

USA.gov is the U.S. government's official web portal to all federal, state and local government web resources and services.